JAL777 RJAA-ZSSS
Flight info
| Callsign | JAL777 |
|---|---|
| Flight time | 2h 32m |
| Altitude | 40000 |
| Route | REDEK Y60 ISAKY Y592 POTET A593 LAMEN/K0935F280 A593 AKARA/K0932S0840 A593 PUD PUD71A |
| Aircraft | A35K/H-SDE2E3GHIJ1J3J4J5LM1ORWXY/LB1D1 |
Departure
| Time | 2026-05-07 02:02 |
|---|---|
| Airport | Narita International Airport (RJAA) |
Arrival
| Time | 2026-05-07 04:35 |
|---|---|
| Airport | Shanghai Hongqiao International Airport (ZSSS) |
| Time | Latitude | Longitude | Altitude | Speed | Heading |
|---|---|---|---|---|---|
| 2026-05-07 01:38 | 35.76070 | 140.38450 | 150 ft | 0 kts | 59° |
| 2026-05-07 01:53 | 35.76061 | 140.38434 | 150 ft | 4 kts | 54° |
| 2026-05-07 01:53 | 35.76044 | 140.38408 | 150 ft | 4 kts | 43° |
| 2026-05-07 01:53 | 35.76023 | 140.38388 | 150 ft | 4 kts | 27° |
| 2026-05-07 01:54 | 35.75999 | 140.38378 | 150 ft | 4 kts | 358° |
| 2026-05-07 01:54 | 35.75983 | 140.38381 | 150 ft | 0 kts | 329° |
| 2026-05-07 01:56 | 35.75985 | 140.38380 | 150 ft | 1 kts | 329° |
| 2026-05-07 01:57 | 35.76028 | 140.38349 | 150 ft | 13 kts | 329° |
| 2026-05-07 01:57 | 35.76139 | 140.38268 | 150 ft | 22 kts | 329° |
| 2026-05-07 01:57 | 35.76239 | 140.38184 | 150 ft | 8 kts | 297° |
| 2026-05-07 01:57 | 35.76232 | 140.38107 | 150 ft | 11 kts | 251° |
| 2026-05-07 01:58 | 35.76197 | 140.38016 | 150 ft | 10 kts | 262° |
| 2026-05-07 01:58 | 35.76223 | 140.37970 | 150 ft | 11 kts | 322° |
| 2026-05-07 01:58 | 35.76299 | 140.37910 | 150 ft | 15 kts | 330° |
| 2026-05-07 01:58 | 35.76407 | 140.37832 | 149 ft | 20 kts | 329° |
| 2026-05-07 01:59 | 35.76542 | 140.37735 | 150 ft | 24 kts | 329° |
| 2026-05-07 01:59 | 35.76700 | 140.37621 | 150 ft | 28 kts | 329° |
| 2026-05-07 01:59 | 35.76873 | 140.37496 | 149 ft | 30 kts | 329° |
| 2026-05-07 01:59 | 35.77057 | 140.37363 | 149 ft | 31 kts | 330° |
| 2026-05-07 02:00 | 35.77250 | 140.37224 | 151 ft | 31 kts | 330° |
| 2026-05-07 02:00 | 35.77431 | 140.37093 | 149 ft | 25 kts | 330° |
| 2026-05-07 02:00 | 35.77497 | 140.37010 | 149 ft | 8 kts | 275° |
| 2026-05-07 02:00 | 35.77475 | 140.36941 | 150 ft | 10 kts | 239° |
| 2026-05-07 02:01 | 35.77425 | 140.36875 | 149 ft | 11 kts | 197° |
| 2026-05-07 02:01 | 35.77341 | 140.36903 | 148 ft | 10 kts | 151° |
| 2026-05-07 02:01 | 35.77313 | 140.36923 | 148 ft | 21 kts | 150° |
| 2026-05-07 02:01 | 35.76943 | 140.37189 | 149 ft | 99 kts | 150° |
| 2026-05-07 02:02 | 35.76153 | 140.37760 | 150 ft | 163 kts | 150° |
| 2026-05-07 02:02 | 35.75119 | 140.38503 | 750 ft | 168 kts | 150° |
| 2026-05-07 02:02 | 35.74129 | 140.39246 | 1570 ft | 168 kts | 151° |
| 2026-05-07 02:02 | 35.73055 | 140.40049 | 1929 ft | 194 kts | 152° |
| 2026-05-07 02:03 | 35.71807 | 140.40944 | 2275 ft | 221 kts | 152° |
| 2026-05-07 02:03 | 35.70381 | 140.41955 | 2625 ft | 251 kts | 152° |
| 2026-05-07 02:03 | 35.68839 | 140.43057 | 3421 ft | 257 kts | 152° |
| 2026-05-07 02:03 | 35.67293 | 140.44173 | 4362 ft | 259 kts | 153° |
| 2026-05-07 02:04 | 35.65723 | 140.45303 | 5229 ft | 264 kts | 153° |
| 2026-05-07 02:04 | 35.64128 | 140.46448 | 6159 ft | 267 kts | 153° |
| 2026-05-07 02:04 | 35.62513 | 140.47609 | 7057 ft | 271 kts | 153° |
| 2026-05-07 02:04 | 35.60871 | 140.48788 | 7945 ft | 276 kts | 154° |
| 2026-05-07 02:05 | 35.59195 | 140.49991 | 8862 ft | 281 kts | 154° |
| 2026-05-07 02:05 | 35.57489 | 140.51214 | 9766 ft | 286 kts | 154° |
| 2026-05-07 02:05 | 35.55660 | 140.52204 | 10443 ft | 292 kts | 168° |
| 2026-05-07 02:05 | 35.53608 | 140.52465 | 10808 ft | 305 kts | 190° |
| 2026-05-07 02:06 | 35.51585 | 140.51590 | 11141 ft | 317 kts | 216° |
| 2026-05-07 02:06 | 35.50038 | 140.49602 | 11488 ft | 332 kts | 240° |
| 2026-05-07 02:06 | 35.49328 | 140.46880 | 12109 ft | 343 kts | 263° |
| 2026-05-07 02:06 | 35.49582 | 140.43948 | 12870 ft | 352 kts | 282° |
| 2026-05-07 02:07 | 35.50290 | 140.41051 | 13632 ft | 356 kts | 283° |
| 2026-05-07 02:07 | 35.51546 | 140.35114 | 14913 ft | 363 kts | 278° |
| 2026-05-07 02:07 | 35.52028 | 140.32098 | 15509 ft | 366 kts | 276° |
| 2026-05-07 02:08 | 35.52412 | 140.29000 | 16140 ft | 368 kts | 274° |
| 2026-05-07 02:08 | 35.52684 | 140.25833 | 16817 ft | 369 kts | 271° |
| 2026-05-07 02:08 | 35.52828 | 140.22684 | 17482 ft | 370 kts | 268° |
| 2026-05-07 02:08 | 35.52837 | 140.19512 | 18137 ft | 372 kts | 265° |
| 2026-05-07 02:09 | 35.52700 | 140.16325 | 18644 ft | 376 kts | 262° |
| 2026-05-07 02:09 | 35.52402 | 140.13124 | 19147 ft | 379 kts | 259° |
| 2026-05-07 02:09 | 35.51939 | 140.09965 | 19644 ft | 383 kts | 255° |
| 2026-05-07 02:09 | 35.51280 | 140.06789 | 20180 ft | 386 kts | 251° |
| 2026-05-07 02:10 | 35.50416 | 140.03657 | 20686 ft | 390 kts | 248° |
| 2026-05-07 02:10 | 35.49577 | 140.00471 | 21191 ft | 396 kts | 255° |
| 2026-05-07 02:10 | 35.49094 | 139.97125 | 21712 ft | 401 kts | 260° |
| 2026-05-07 02:10 | 35.48731 | 139.93703 | 22182 ft | 407 kts | 259° |
| 2026-05-07 02:11 | 35.48217 | 139.90281 | 22674 ft | 410 kts | 255° |
| 2026-05-07 02:11 | 35.47381 | 139.86931 | 23210 ft | 413 kts | 249° |
| 2026-05-07 02:11 | 35.46346 | 139.83632 | 23678 ft | 416 kts | 247° |
| 2026-05-07 02:11 | 35.45237 | 139.80330 | 24089 ft | 420 kts | 246° |
| 2026-05-07 02:12 | 35.44110 | 139.77003 | 24535 ft | 424 kts | 246° |
| 2026-05-07 02:12 | 35.42987 | 139.73639 | 25000 ft | 428 kts | 247° |
| 2026-05-07 02:12 | 35.41873 | 139.70235 | 25482 ft | 432 kts | 248° |
| 2026-05-07 02:12 | 35.40764 | 139.66788 | 25968 ft | 437 kts | 248° |
| 2026-05-07 02:13 | 35.39655 | 139.63306 | 26435 ft | 441 kts | 248° |
| 2026-05-07 02:13 | 35.38539 | 139.59786 | 26910 ft | 445 kts | 248° |
| 2026-05-07 02:13 | 35.37415 | 139.56236 | 27371 ft | 449 kts | 248° |
| 2026-05-07 02:13 | 35.36279 | 139.52652 | 27844 ft | 454 kts | 249° |
| 2026-05-07 02:14 | 35.35235 | 139.48984 | 28254 ft | 459 kts | 253° |
| 2026-05-07 02:14 | 35.34566 | 139.45142 | 28696 ft | 464 kts | 262° |
| 2026-05-07 02:14 | 35.34234 | 139.41238 | 29234 ft | 465 kts | 264° |
| 2026-05-07 02:14 | 35.33998 | 139.37274 | 29752 ft | 468 kts | 265° |
| 2026-05-07 02:15 | 35.33811 | 139.33284 | 30163 ft | 471 kts | 266° |
| 2026-05-07 02:15 | 35.33642 | 139.29260 | 30512 ft | 475 kts | 266° |
| 2026-05-07 02:15 | 35.33474 | 139.25217 | 30882 ft | 477 kts | 266° |
| 2026-05-07 02:15 | 35.33299 | 139.21151 | 31242 ft | 479 kts | 266° |
| 2026-05-07 02:16 | 35.33115 | 139.17063 | 31594 ft | 482 kts | 266° |
| 2026-05-07 02:16 | 35.32924 | 139.12976 | 32084 ft | 480 kts | 266° |
| 2026-05-07 02:16 | 35.32729 | 139.08902 | 32623 ft | 478 kts | 266° |
| 2026-05-07 02:16 | 35.32530 | 139.04845 | 33056 ft | 478 kts | 265° |
| 2026-05-07 02:17 | 35.32330 | 139.00780 | 33499 ft | 477 kts | 265° |
| 2026-05-07 02:17 | 35.32128 | 138.96732 | 34011 ft | 475 kts | 265° |
| 2026-05-07 02:17 | 35.31927 | 138.92706 | 34458 ft | 473 kts | 265° |
| 2026-05-07 02:17 | 35.31731 | 138.88710 | 34975 ft | 468 kts | 265° |
| 2026-05-07 02:18 | 35.31532 | 138.84751 | 35500 ft | 464 kts | 265° |
| 2026-05-07 02:18 | 35.31332 | 138.80823 | 35931 ft | 461 kts | 265° |
| 2026-05-07 02:18 | 35.31131 | 138.76917 | 36366 ft | 458 kts | 265° |
| 2026-05-07 02:18 | 35.30930 | 138.73037 | 36800 ft | 455 kts | 264° |
| 2026-05-07 02:19 | 35.30731 | 138.69186 | 37242 ft | 452 kts | 264° |
| 2026-05-07 02:19 | 35.30532 | 138.65357 | 37690 ft | 449 kts | 264° |
| 2026-05-07 02:19 | 35.30333 | 138.61555 | 38077 ft | 447 kts | 264° |
| 2026-05-07 02:19 | 35.30134 | 138.57767 | 38440 ft | 445 kts | 264° |
| 2026-05-07 02:20 | 35.29935 | 138.54001 | 38796 ft | 442 kts | 264° |
| 2026-05-07 02:20 | 35.29736 | 138.50255 | 39072 ft | 441 kts | 264° |
| 2026-05-07 02:20 | 35.29542 | 138.46507 | 39202 ft | 441 kts | 264° |
| 2026-05-07 02:20 | 35.29345 | 138.42761 | 39381 ft | 441 kts | 264° |
| 2026-05-07 02:21 | 35.29139 | 138.39005 | 39503 ft | 443 kts | 264° |
| 2026-05-07 02:21 | 35.28933 | 138.35233 | 39483 ft | 447 kts | 264° |
| 2026-05-07 02:21 | 35.28726 | 138.31429 | 39610 ft | 448 kts | 264° |
| 2026-05-07 02:21 | 35.28520 | 138.27634 | 39880 ft | 446 kts | 264° |
| 2026-05-07 02:22 | 35.28308 | 138.23848 | 40008 ft | 446 kts | 264° |
| 2026-05-07 02:22 | 35.28092 | 138.20063 | 40014 ft | 446 kts | 264° |
| 2026-05-07 02:22 | 35.27656 | 138.12452 | 40027 ft | 449 kts | 264° |
| 2026-05-07 02:23 | 35.27223 | 138.04837 | 40022 ft | 448 kts | 264° |
| 2026-05-07 02:23 | 35.26780 | 137.97220 | 40030 ft | 449 kts | 264° |
| 2026-05-07 02:24 | 35.26337 | 137.89588 | 40014 ft | 450 kts | 264° |
| 2026-05-07 02:24 | 35.25889 | 137.81939 | 40030 ft | 450 kts | 264° |
| 2026-05-07 02:25 | 35.25403 | 137.74315 | 40027 ft | 449 kts | 264° |
| 2026-05-07 02:25 | 35.24817 | 137.66706 | 40020 ft | 449 kts | 263° |
| 2026-05-07 02:26 | 35.23888 | 137.59159 | 40013 ft | 448 kts | 254° |
| 2026-05-07 02:26 | 35.22004 | 137.51888 | 40014 ft | 449 kts | 251° |
| 2026-05-07 02:27 | 35.19935 | 137.44667 | 40012 ft | 450 kts | 250° |
| 2026-05-07 02:27 | 35.17843 | 137.37464 | 40001 ft | 450 kts | 250° |
| 2026-05-07 02:28 | 35.15754 | 137.30241 | 40007 ft | 451 kts | 250° |
| 2026-05-07 02:28 | 35.13669 | 137.23010 | 40007 ft | 451 kts | 250° |
| 2026-05-07 02:29 | 35.11581 | 137.15778 | 40004 ft | 451 kts | 250° |
| 2026-05-07 02:29 | 35.09489 | 137.08551 | 40001 ft | 451 kts | 250° |
| 2026-05-07 02:30 | 35.07392 | 137.01328 | 40004 ft | 451 kts | 250° |
| 2026-05-07 02:30 | 35.05293 | 136.94115 | 40005 ft | 450 kts | 250° |
| 2026-05-07 02:31 | 35.03192 | 136.86918 | 40014 ft | 450 kts | 250° |
| 2026-05-07 02:31 | 35.01090 | 136.79732 | 40016 ft | 450 kts | 250° |
| 2026-05-07 02:32 | 34.99168 | 136.72471 | 40016 ft | 450 kts | 253° |
| 2026-05-07 02:32 | 34.97420 | 136.65131 | 40015 ft | 451 kts | 253° |
| 2026-05-07 02:33 | 34.95651 | 136.57798 | 40012 ft | 451 kts | 253° |
| 2026-05-07 02:33 | 34.93841 | 136.50477 | 40009 ft | 451 kts | 253° |
| 2026-05-07 02:34 | 34.92010 | 136.43161 | 40006 ft | 451 kts | 253° |
| 2026-05-07 02:34 | 34.90174 | 136.35849 | 40005 ft | 452 kts | 253° |
| 2026-05-07 02:35 | 34.88333 | 136.28528 | 40004 ft | 452 kts | 253° |
| 2026-05-07 02:35 | 34.86488 | 136.21214 | 40007 ft | 452 kts | 253° |
| 2026-05-07 02:36 | 34.84637 | 136.13892 | 40007 ft | 453 kts | 253° |
| 2026-05-07 02:36 | 34.82778 | 136.06563 | 40012 ft | 454 kts | 253° |
| 2026-05-07 02:37 | 34.80915 | 135.99234 | 40007 ft | 453 kts | 253° |
| 2026-05-07 02:37 | 34.79049 | 135.91913 | 40009 ft | 453 kts | 252° |
| 2026-05-07 02:38 | 34.77179 | 135.84602 | 40016 ft | 453 kts | 252° |
| 2026-05-07 02:38 | 34.75304 | 135.77289 | 40010 ft | 453 kts | 252° |
| 2026-05-07 02:39 | 34.73742 | 135.71211 | 40018 ft | 453 kts | 252° |
| 2026-05-07 02:39 | 34.71537 | 135.62658 | 40019 ft | 454 kts | 252° |
| 2026-05-07 02:40 | 34.69966 | 135.56581 | 40020 ft | 454 kts | 252° |
| 2026-05-07 02:40 | 34.68072 | 135.49271 | 39995 ft | 454 kts | 252° |
| 2026-05-07 02:41 | 34.66175 | 135.41966 | 39996 ft | 453 kts | 252° |
| 2026-05-07 02:41 | 34.64664 | 135.34528 | 40020 ft | 454 kts | 257° |
| 2026-05-07 02:42 | 34.63308 | 135.27041 | 40021 ft | 454 kts | 257° |
| 2026-05-07 02:42 | 34.61973 | 135.19547 | 40020 ft | 454 kts | 257° |
| 2026-05-07 02:43 | 34.60631 | 135.12064 | 40022 ft | 453 kts | 257° |
| 2026-05-07 02:43 | 34.59285 | 135.04615 | 40020 ft | 451 kts | 257° |
| 2026-05-07 02:44 | 34.57933 | 134.97173 | 40032 ft | 451 kts | 257° |
| 2026-05-07 02:44 | 34.56581 | 134.89757 | 40023 ft | 450 kts | 257° |
| 2026-05-07 02:45 | 34.55222 | 134.82326 | 40026 ft | 452 kts | 257° |
| 2026-05-07 02:45 | 34.53854 | 134.74880 | 40028 ft | 452 kts | 257° |
| 2026-05-07 02:46 | 34.52482 | 134.67438 | 40029 ft | 452 kts | 257° |
| 2026-05-07 02:46 | 34.51105 | 134.59993 | 40038 ft | 453 kts | 257° |
| 2026-05-07 02:47 | 34.49722 | 134.52547 | 40031 ft | 452 kts | 257° |
| 2026-05-07 02:47 | 34.48339 | 134.45106 | 40031 ft | 452 kts | 257° |
| 2026-05-07 02:48 | 34.46952 | 134.37681 | 40029 ft | 451 kts | 257° |
| 2026-05-07 02:48 | 34.45558 | 134.30268 | 40028 ft | 452 kts | 257° |
| 2026-05-07 02:49 | 34.44159 | 134.22850 | 40030 ft | 452 kts | 257° |
| 2026-05-07 02:49 | 34.42757 | 134.15440 | 40023 ft | 451 kts | 257° |
| 2026-05-07 02:50 | 34.41356 | 134.08049 | 40023 ft | 450 kts | 257° |
| 2026-05-07 02:50 | 34.39951 | 134.00653 | 40028 ft | 451 kts | 257° |
| 2026-05-07 02:51 | 34.38543 | 133.93268 | 40021 ft | 449 kts | 257° |
| 2026-05-07 02:51 | 34.37134 | 133.85906 | 40021 ft | 449 kts | 257° |
| 2026-05-07 02:52 | 34.35721 | 133.78558 | 40022 ft | 447 kts | 257° |
| 2026-05-07 02:52 | 34.34310 | 133.71240 | 40023 ft | 448 kts | 257° |
| 2026-05-07 02:53 | 34.32889 | 133.63899 | 40023 ft | 449 kts | 257° |
| 2026-05-07 02:53 | 34.31250 | 133.56644 | 40023 ft | 446 kts | 252° |
| 2026-05-07 02:54 | 34.29280 | 133.49545 | 40020 ft | 445 kts | 251° |
| 2026-05-07 02:54 | 34.27256 | 133.42477 | 40027 ft | 445 kts | 251° |
| 2026-05-07 02:55 | 34.25245 | 133.35484 | 40023 ft | 443 kts | 251° |
| 2026-05-07 02:55 | 34.23227 | 133.28462 | 40021 ft | 442 kts | 251° |
| 2026-05-07 02:56 | 34.21211 | 133.21447 | 40024 ft | 442 kts | 251° |
| 2026-05-07 02:56 | 34.19193 | 133.14439 | 40020 ft | 441 kts | 251° |
| 2026-05-07 02:57 | 34.17174 | 133.07437 | 40023 ft | 441 kts | 251° |
| 2026-05-07 02:57 | 34.15147 | 133.00440 | 40028 ft | 441 kts | 251° |
| 2026-05-07 02:58 | 34.13123 | 132.93468 | 40019 ft | 440 kts | 251° |
| 2026-05-07 02:58 | 34.11094 | 132.86498 | 40025 ft | 440 kts | 251° |
| 2026-05-07 02:59 | 34.09063 | 132.79530 | 40022 ft | 440 kts | 251° |
| 2026-05-07 02:59 | 34.07027 | 132.72565 | 40024 ft | 440 kts | 251° |
| 2026-05-07 03:00 | 34.04986 | 132.65597 | 40023 ft | 442 kts | 251° |
| 2026-05-07 03:00 | 34.02935 | 132.58613 | 40029 ft | 442 kts | 251° |
| 2026-05-07 03:01 | 34.00884 | 132.51648 | 40022 ft | 440 kts | 251° |
| 2026-05-07 03:01 | 33.98832 | 132.44697 | 40016 ft | 440 kts | 251° |
| 2026-05-07 03:02 | 33.96777 | 132.37750 | 40018 ft | 441 kts | 251° |
| 2026-05-07 03:02 | 33.94718 | 132.30807 | 40014 ft | 439 kts | 251° |
| 2026-05-07 03:03 | 33.92662 | 132.23881 | 40012 ft | 439 kts | 251° |
| 2026-05-07 03:03 | 33.90651 | 132.16930 | 40025 ft | 439 kts | 253° |
| 2026-05-07 03:04 | 33.89092 | 132.09828 | 40021 ft | 439 kts | 256° |
| 2026-05-07 03:04 | 33.87642 | 132.02700 | 40020 ft | 439 kts | 256° |
| 2026-05-07 03:05 | 33.86127 | 131.95591 | 40023 ft | 438 kts | 255° |
| 2026-05-07 03:05 | 33.84564 | 131.88510 | 40018 ft | 438 kts | 255° |
| 2026-05-07 03:06 | 33.82985 | 131.81438 | 40016 ft | 438 kts | 255° |
| 2026-05-07 03:06 | 33.81402 | 131.74358 | 40019 ft | 439 kts | 255° |
| 2026-05-07 03:07 | 33.79815 | 131.67274 | 40018 ft | 439 kts | 255° |
| 2026-05-07 03:07 | 33.78226 | 131.60196 | 40018 ft | 439 kts | 255° |
| 2026-05-07 03:08 | 33.76634 | 131.53123 | 40005 ft | 439 kts | 255° |
| 2026-05-07 03:08 | 33.75032 | 131.46028 | 40016 ft | 440 kts | 255° |
| 2026-05-07 03:09 | 33.73424 | 131.38929 | 40007 ft | 440 kts | 255° |
| 2026-05-07 03:09 | 33.71813 | 131.31834 | 40009 ft | 440 kts | 255° |
| 2026-05-07 03:10 | 33.70198 | 131.24743 | 40007 ft | 441 kts | 255° |
| 2026-05-07 03:10 | 33.68577 | 131.17646 | 40005 ft | 441 kts | 255° |
| 2026-05-07 03:11 | 33.66950 | 131.10545 | 40002 ft | 441 kts | 255° |
| 2026-05-07 03:11 | 33.65324 | 131.03466 | 39998 ft | 440 kts | 255° |
| 2026-05-07 03:12 | 33.63694 | 130.96391 | 39999 ft | 440 kts | 255° |
| 2026-05-07 03:12 | 33.62059 | 130.89317 | 39989 ft | 440 kts | 255° |
| 2026-05-07 03:13 | 33.60421 | 130.82251 | 39988 ft | 439 kts | 255° |
| 2026-05-07 03:13 | 33.58781 | 130.75190 | 39984 ft | 440 kts | 255° |
| 2026-05-07 03:14 | 33.57136 | 130.68128 | 39976 ft | 439 kts | 255° |
| 2026-05-07 03:15 | 33.54661 | 130.57545 | 39970 ft | 440 kts | 254° |
| 2026-05-07 03:15 | 33.53005 | 130.50491 | 39961 ft | 439 kts | 254° |
| 2026-05-07 03:16 | 33.51172 | 130.43512 | 39968 ft | 439 kts | 248° |
| 2026-05-07 03:16 | 33.48704 | 130.36827 | 39970 ft | 439 kts | 246° |
| 2026-05-07 03:17 | 33.46125 | 130.30201 | 39982 ft | 439 kts | 246° |
| 2026-05-07 03:17 | 33.43524 | 130.23576 | 40000 ft | 440 kts | 246° |
| 2026-05-07 03:18 | 33.40933 | 130.16964 | 39992 ft | 438 kts | 246° |
| 2026-05-07 03:18 | 33.38347 | 130.10356 | 39998 ft | 438 kts | 246° |
| 2026-05-07 03:19 | 33.35761 | 130.03754 | 39980 ft | 438 kts | 246° |
| 2026-05-07 03:19 | 33.33169 | 129.97149 | 39995 ft | 439 kts | 246° |
| 2026-05-07 03:20 | 33.30569 | 129.90544 | 39995 ft | 439 kts | 246° |
| 2026-05-07 03:20 | 33.27964 | 129.83936 | 39995 ft | 439 kts | 246° |
| 2026-05-07 03:21 | 33.25361 | 129.77338 | 39987 ft | 439 kts | 246° |
| 2026-05-07 03:21 | 33.23193 | 129.71853 | 40000 ft | 440 kts | 246° |
| 2026-05-07 03:22 | 33.20147 | 129.64175 | 39998 ft | 440 kts | 246° |
| 2026-05-07 03:22 | 33.18132 | 129.58561 | 39998 ft | 439 kts | 249° |
| 2026-05-07 03:23 | 33.15902 | 129.51775 | 39999 ft | 439 kts | 250° |
| 2026-05-07 03:23 | 33.13649 | 129.44998 | 39998 ft | 440 kts | 249° |
| 2026-05-07 03:24 | 33.11347 | 129.38231 | 40003 ft | 440 kts | 249° |
| 2026-05-07 03:24 | 33.09023 | 129.31474 | 40005 ft | 440 kts | 249° |
| 2026-05-07 03:25 | 33.06695 | 129.24724 | 40001 ft | 440 kts | 249° |
| 2026-05-07 03:25 | 33.04380 | 129.18018 | 39998 ft | 441 kts | 249° |
| 2026-05-07 03:26 | 33.02028 | 129.11215 | 40008 ft | 441 kts | 249° |
| 2026-05-07 03:26 | 32.99701 | 129.04500 | 39998 ft | 441 kts | 249° |
| 2026-05-07 03:27 | 32.97354 | 128.97744 | 39997 ft | 441 kts | 249° |
| 2026-05-07 03:27 | 32.95005 | 128.90990 | 39988 ft | 441 kts | 249° |
| 2026-05-07 03:28 | 32.92650 | 128.84238 | 39996 ft | 441 kts | 249° |
| 2026-05-07 03:28 | 32.90293 | 128.77491 | 40000 ft | 441 kts | 249° |
| 2026-05-07 03:29 | 32.87931 | 128.70750 | 39994 ft | 441 kts | 249° |
| 2026-05-07 03:29 | 32.85563 | 128.64009 | 39997 ft | 441 kts | 249° |
| 2026-05-07 03:30 | 32.83199 | 128.57279 | 39994 ft | 441 kts | 249° |
| 2026-05-07 03:30 | 32.80830 | 128.50549 | 39997 ft | 441 kts | 249° |
| 2026-05-07 03:31 | 32.78459 | 128.43833 | 39998 ft | 441 kts | 249° |
| 2026-05-07 03:31 | 32.76082 | 128.37112 | 39995 ft | 441 kts | 249° |
| 2026-05-07 03:32 | 32.73703 | 128.30400 | 39993 ft | 441 kts | 249° |
| 2026-05-07 03:32 | 32.71317 | 128.23693 | 39996 ft | 441 kts | 248° |
| 2026-05-07 03:33 | 32.68928 | 128.16988 | 39999 ft | 441 kts | 249° |
| 2026-05-07 03:33 | 32.66544 | 128.10293 | 39993 ft | 440 kts | 249° |
| 2026-05-07 03:34 | 32.64157 | 128.03610 | 39970 ft | 440 kts | 249° |
| 2026-05-07 03:34 | 32.61766 | 127.96930 | 39993 ft | 439 kts | 249° |
| 2026-05-07 03:35 | 32.59374 | 127.90266 | 39992 ft | 439 kts | 249° |
| 2026-05-07 03:35 | 32.56983 | 127.83614 | 39993 ft | 438 kts | 249° |
| 2026-05-07 03:36 | 32.54590 | 127.76972 | 39994 ft | 438 kts | 249° |
| 2026-05-07 03:36 | 32.52193 | 127.70330 | 39997 ft | 438 kts | 248° |
| 2026-05-07 03:37 | 32.49795 | 127.63698 | 39995 ft | 438 kts | 248° |
| 2026-05-07 03:37 | 32.47395 | 127.57076 | 39996 ft | 437 kts | 248° |
| 2026-05-07 03:38 | 32.44992 | 127.50458 | 39996 ft | 437 kts | 248° |
| 2026-05-07 03:38 | 32.42585 | 127.43843 | 39990 ft | 437 kts | 248° |
| 2026-05-07 03:39 | 32.40179 | 127.37244 | 39993 ft | 436 kts | 248° |
| 2026-05-07 03:39 | 32.37772 | 127.30653 | 39993 ft | 436 kts | 248° |
| 2026-05-07 03:40 | 32.35362 | 127.24067 | 39994 ft | 436 kts | 248° |
| 2026-05-07 03:40 | 32.32949 | 127.17486 | 39995 ft | 436 kts | 248° |
| 2026-05-07 03:41 | 32.30531 | 127.10907 | 39985 ft | 436 kts | 248° |
| 2026-05-07 03:41 | 32.28212 | 127.04348 | 39995 ft | 434 kts | 253° |
| 2026-05-07 03:42 | 32.26529 | 126.97459 | 40004 ft | 433 kts | 256° |
| 2026-05-07 03:42 | 32.25008 | 126.90574 | 39996 ft | 433 kts | 256° |
| 2026-05-07 03:43 | 32.23518 | 126.83733 | 39996 ft | 433 kts | 256° |
| 2026-05-07 03:43 | 32.22005 | 126.76845 | 39993 ft | 433 kts | 256° |
| 2026-05-07 03:44 | 32.20481 | 126.69968 | 39993 ft | 433 kts | 256° |
| 2026-05-07 03:44 | 32.18944 | 126.63055 | 39990 ft | 433 kts | 256° |
| 2026-05-07 03:45 | 32.17465 | 126.56221 | 39994 ft | 432 kts | 257° |
| 2026-05-07 03:45 | 32.15979 | 126.49296 | 40000 ft | 432 kts | 257° |
| 2026-05-07 03:46 | 32.14494 | 126.42421 | 39990 ft | 432 kts | 257° |
| 2026-05-07 03:46 | 32.13000 | 126.35550 | 39972 ft | 432 kts | 257° |
| 2026-05-07 03:47 | 32.11500 | 126.28681 | 39991 ft | 432 kts | 257° |
| 2026-05-07 03:47 | 32.09998 | 126.21819 | 39993 ft | 432 kts | 256° |
| 2026-05-07 03:48 | 32.08493 | 126.14959 | 39990 ft | 432 kts | 256° |
| 2026-05-07 03:48 | 32.06984 | 126.08105 | 39990 ft | 432 kts | 256° |
| 2026-05-07 03:49 | 32.05481 | 126.01252 | 39993 ft | 432 kts | 257° |
| 2026-05-07 03:49 | 32.04014 | 125.94391 | 39982 ft | 432 kts | 257° |
| 2026-05-07 03:50 | 32.02548 | 125.87528 | 39987 ft | 432 kts | 257° |
| 2026-05-07 03:50 | 32.01073 | 125.80671 | 39988 ft | 432 kts | 257° |
| 2026-05-07 03:51 | 31.99585 | 125.73819 | 39992 ft | 432 kts | 257° |
| 2026-05-07 03:51 | 31.98063 | 125.66977 | 39988 ft | 431 kts | 256° |
| 2026-05-07 03:52 | 31.96626 | 125.60552 | 39990 ft | 431 kts | 256° |
| 2026-05-07 03:52 | 31.95099 | 125.53720 | 39973 ft | 431 kts | 256° |
| 2026-05-07 03:53 | 31.93582 | 125.46940 | 39990 ft | 431 kts | 256° |
| 2026-05-07 03:53 | 31.92055 | 125.40125 | 39985 ft | 431 kts | 256° |
| 2026-05-07 03:54 | 31.90514 | 125.33264 | 39982 ft | 431 kts | 256° |
| 2026-05-07 03:54 | 31.88979 | 125.26454 | 39985 ft | 431 kts | 256° |
| 2026-05-07 03:55 | 31.87451 | 125.19693 | 39980 ft | 430 kts | 256° |
| 2026-05-07 03:55 | 31.85911 | 125.12898 | 39967 ft | 430 kts | 256° |
| 2026-05-07 03:56 | 31.84367 | 125.06106 | 39975 ft | 430 kts | 256° |
| 2026-05-07 03:56 | 31.82821 | 124.99315 | 39975 ft | 430 kts | 256° |
| 2026-05-07 03:57 | 31.81332 | 124.92523 | 39981 ft | 428 kts | 257° |
| 2026-05-07 03:57 | 31.79881 | 124.85738 | 39979 ft | 428 kts | 257° |
| 2026-05-07 03:58 | 31.78421 | 124.78962 | 39979 ft | 428 kts | 257° |
| 2026-05-07 03:58 | 31.76949 | 124.72186 | 39980 ft | 428 kts | 257° |
| 2026-05-07 03:59 | 31.75472 | 124.65425 | 39970 ft | 427 kts | 257° |
| 2026-05-07 03:59 | 31.73994 | 124.58675 | 39970 ft | 426 kts | 257° |
| 2026-05-07 04:00 | 31.72514 | 124.51934 | 39984 ft | 426 kts | 257° |
| 2026-05-07 04:00 | 31.71029 | 124.45188 | 39981 ft | 427 kts | 256° |
| 2026-05-07 04:01 | 31.69538 | 124.38432 | 39983 ft | 428 kts | 256° |
| 2026-05-07 04:01 | 31.68040 | 124.31662 | 39980 ft | 428 kts | 256° |
| 2026-05-07 04:02 | 31.66538 | 124.24897 | 39964 ft | 428 kts | 257° |
| 2026-05-07 04:02 | 31.65037 | 124.18150 | 39970 ft | 427 kts | 256° |
| 2026-05-07 04:03 | 31.63529 | 124.11392 | 39972 ft | 428 kts | 256° |
| 2026-05-07 04:03 | 31.62017 | 124.04634 | 39972 ft | 428 kts | 256° |
| 2026-05-07 04:04 | 31.60504 | 123.97874 | 39967 ft | 428 kts | 257° |
| 2026-05-07 04:04 | 31.59273 | 123.92251 | 39972 ft | 429 kts | 257° |
| 2026-05-07 04:05 | 31.57797 | 123.85465 | 39959 ft | 430 kts | 257° |
| 2026-05-07 04:05 | 31.56315 | 123.78682 | 39966 ft | 430 kts | 257° |
| 2026-05-07 04:06 | 31.54823 | 123.71897 | 39967 ft | 430 kts | 257° |
| 2026-05-07 04:06 | 31.53326 | 123.65113 | 39960 ft | 430 kts | 257° |
| 2026-05-07 04:07 | 31.51825 | 123.58329 | 39964 ft | 430 kts | 257° |
| 2026-05-07 04:07 | 31.50320 | 123.51541 | 39973 ft | 430 kts | 257° |
| 2026-05-07 04:08 | 31.48891 | 123.44733 | 39969 ft | 430 kts | 258° |
| 2026-05-07 04:08 | 31.47630 | 123.37889 | 39945 ft | 430 kts | 259° |
| 2026-05-07 04:09 | 31.46370 | 123.31036 | 39958 ft | 430 kts | 259° |
| 2026-05-07 04:09 | 31.45078 | 123.24191 | 39957 ft | 430 kts | 258° |
| 2026-05-07 04:10 | 31.43770 | 123.17353 | 39951 ft | 430 kts | 258° |
| 2026-05-07 04:10 | 31.42457 | 123.10525 | 39798 ft | 427 kts | 258° |
| 2026-05-07 04:10 | 31.41803 | 123.07127 | 39572 ft | 429 kts | 258° |
| 2026-05-07 04:11 | 31.41144 | 123.03708 | 39351 ft | 431 kts | 258° |
| 2026-05-07 04:11 | 31.40483 | 123.00275 | 39118 ft | 433 kts | 258° |
| 2026-05-07 04:11 | 31.39825 | 122.96859 | 38733 ft | 428 kts | 258° |
| 2026-05-07 04:11 | 31.39169 | 122.93465 | 38069 ft | 426 kts | 258° |
| 2026-05-07 04:12 | 31.38517 | 122.90095 | 37383 ft | 424 kts | 258° |
| 2026-05-07 04:12 | 31.37864 | 122.86738 | 36776 ft | 422 kts | 258° |
| 2026-05-07 04:12 | 31.37215 | 122.83400 | 36107 ft | 421 kts | 258° |
| 2026-05-07 04:12 | 31.36566 | 122.80066 | 35439 ft | 420 kts | 258° |
| 2026-05-07 04:13 | 31.35917 | 122.76733 | 34752 ft | 421 kts | 258° |
| 2026-05-07 04:13 | 31.35273 | 122.73380 | 34008 ft | 423 kts | 258° |
| 2026-05-07 04:13 | 31.34632 | 122.70012 | 33147 ft | 426 kts | 258° |
| 2026-05-07 04:13 | 31.33998 | 122.66668 | 32344 ft | 428 kts | 258° |
| 2026-05-07 04:14 | 31.33342 | 122.63218 | 31514 ft | 431 kts | 258° |
| 2026-05-07 04:14 | 31.32687 | 122.59778 | 30665 ft | 436 kts | 258° |
| 2026-05-07 04:14 | 31.32023 | 122.56300 | 29737 ft | 440 kts | 258° |
| 2026-05-07 04:14 | 31.31352 | 122.52799 | 28767 ft | 443 kts | 258° |
| 2026-05-07 04:15 | 31.30680 | 122.49305 | 28145 ft | 438 kts | 258° |
| 2026-05-07 04:15 | 31.30015 | 122.45852 | 27508 ft | 433 kts | 257° |
| 2026-05-07 04:15 | 31.29357 | 122.42432 | 26869 ft | 428 kts | 257° |
| 2026-05-07 04:15 | 31.28721 | 122.39050 | 26234 ft | 424 kts | 258° |
| 2026-05-07 04:16 | 31.28103 | 122.35739 | 25635 ft | 421 kts | 257° |
| 2026-05-07 04:16 | 31.27479 | 122.32416 | 25017 ft | 417 kts | 258° |
| 2026-05-07 04:16 | 31.26858 | 122.29116 | 24394 ft | 414 kts | 257° |
| 2026-05-07 04:16 | 31.26240 | 122.25841 | 23779 ft | 411 kts | 257° |
| 2026-05-07 04:17 | 31.25626 | 122.22591 | 23100 ft | 408 kts | 257° |
| 2026-05-07 04:17 | 31.25015 | 122.19370 | 22456 ft | 403 kts | 257° |
| 2026-05-07 04:17 | 31.24415 | 122.16206 | 21837 ft | 398 kts | 257° |
| 2026-05-07 04:17 | 31.23818 | 122.13067 | 21235 ft | 393 kts | 257° |
| 2026-05-07 04:18 | 31.23227 | 122.09962 | 20639 ft | 390 kts | 257° |
| 2026-05-07 04:18 | 31.22640 | 122.06883 | 20043 ft | 387 kts | 257° |
| 2026-05-07 04:18 | 31.22055 | 122.03826 | 19426 ft | 385 kts | 257° |
| 2026-05-07 04:18 | 31.21475 | 122.00787 | 18816 ft | 382 kts | 256° |
| 2026-05-07 04:19 | 31.20897 | 121.97769 | 18196 ft | 379 kts | 256° |
| 2026-05-07 04:19 | 31.20322 | 121.94772 | 17508 ft | 376 kts | 256° |
| 2026-05-07 04:19 | 31.19753 | 121.91808 | 16875 ft | 373 kts | 256° |
| 2026-05-07 04:19 | 31.19186 | 121.88865 | 16251 ft | 370 kts | 257° |
| 2026-05-07 04:20 | 31.18623 | 121.85941 | 15625 ft | 368 kts | 257° |
| 2026-05-07 04:20 | 31.18064 | 121.83040 | 15011 ft | 365 kts | 257° |
| 2026-05-07 04:20 | 31.17508 | 121.80158 | 14382 ft | 363 kts | 257° |
| 2026-05-07 04:21 | 31.16717 | 121.74373 | 13107 ft | 358 kts | 263° |
| 2026-05-07 04:21 | 31.16411 | 121.71502 | 12492 ft | 355 kts | 263° |
| 2026-05-07 04:21 | 31.16107 | 121.68655 | 11877 ft | 352 kts | 262° |
| 2026-05-07 04:21 | 31.15803 | 121.65830 | 11265 ft | 349 kts | 262° |
| 2026-05-07 04:22 | 31.15499 | 121.63032 | 10782 ft | 343 kts | 262° |
| 2026-05-07 04:22 | 31.15208 | 121.60347 | 10642 ft | 324 kts | 262° |
| 2026-05-07 04:22 | 31.14932 | 121.57805 | 10520 ft | 308 kts | 262° |
| 2026-05-07 04:22 | 31.14668 | 121.55392 | 10391 ft | 292 kts | 262° |
| 2026-05-07 04:23 | 31.14415 | 121.53092 | 10270 ft | 279 kts | 262° |
| 2026-05-07 04:23 | 31.14175 | 121.50903 | 10148 ft | 265 kts | 262° |
| 2026-05-07 04:23 | 31.13945 | 121.48806 | 10024 ft | 258 kts | 262° |
| 2026-05-07 04:23 | 31.13715 | 121.46719 | 9932 ft | 266 kts | 262° |
| 2026-05-07 04:24 | 31.13473 | 121.44531 | 9893 ft | 275 kts | 262° |
| 2026-05-07 04:24 | 31.13227 | 121.42309 | 9695 ft | 275 kts | 262° |
| 2026-05-07 04:24 | 31.12985 | 121.40122 | 9184 ft | 276 kts | 262° |
| 2026-05-07 04:24 | 31.12739 | 121.37908 | 8770 ft | 275 kts | 262° |
| 2026-05-07 04:25 | 31.12565 | 121.35685 | 8417 ft | 276 kts | 270° |
| 2026-05-07 04:25 | 31.12959 | 121.33510 | 8083 ft | 276 kts | 294° |
| 2026-05-07 04:25 | 31.14016 | 121.31643 | 7761 ft | 276 kts | 307° |
| 2026-05-07 04:25 | 31.15240 | 121.29917 | 7400 ft | 276 kts | 309° |
| 2026-05-07 04:26 | 31.16469 | 121.28205 | 7060 ft | 274 kts | 309° |
| 2026-05-07 04:26 | 31.17684 | 121.26494 | 6728 ft | 272 kts | 309° |
| 2026-05-07 04:26 | 31.18891 | 121.24794 | 6394 ft | 271 kts | 309° |
| 2026-05-07 04:26 | 31.20274 | 121.23328 | 6050 ft | 269 kts | 328° |
| 2026-05-07 04:27 | 31.22031 | 121.22623 | 5766 ft | 269 kts | 351° |
| 2026-05-07 04:27 | 31.23898 | 121.22454 | 5456 ft | 269 kts | 356° |
| 2026-05-07 04:27 | 31.25780 | 121.22388 | 5180 ft | 271 kts | 357° |
| 2026-05-07 04:27 | 31.27650 | 121.22310 | 4955 ft | 265 kts | 356° |
| 2026-05-07 04:28 | 31.29446 | 121.22224 | 4839 ft | 252 kts | 356° |
| 2026-05-07 04:28 | 31.31159 | 121.22134 | 4720 ft | 240 kts | 355° |
| 2026-05-07 04:28 | 31.32787 | 121.22040 | 4587 ft | 229 kts | 355° |
| 2026-05-07 04:28 | 31.34353 | 121.21951 | 4469 ft | 222 kts | 355° |
| 2026-05-07 04:29 | 31.35889 | 121.21946 | 4242 ft | 223 kts | 4° |
| 2026-05-07 04:29 | 31.37321 | 121.22632 | 4028 ft | 229 kts | 36° |
| 2026-05-07 04:29 | 31.38187 | 121.24175 | 3804 ft | 233 kts | 72° |
| 2026-05-07 04:29 | 31.38354 | 121.26056 | 3594 ft | 233 kts | 89° |
| 2026-05-07 04:30 | 31.38337 | 121.27900 | 3461 ft | 222 kts | 90° |
| 2026-05-07 04:30 | 31.38309 | 121.29691 | 3405 ft | 217 kts | 89° |
| 2026-05-07 04:30 | 31.38075 | 121.31384 | 3294 ft | 208 kts | 112° |
| 2026-05-07 04:30 | 31.37109 | 121.32568 | 3023 ft | 208 kts | 158° |
| 2026-05-07 04:31 | 31.35702 | 121.32853 | 2861 ft | 201 kts | 184° |
| 2026-05-07 04:31 | 31.34314 | 121.32783 | 2329 ft | 201 kts | 184° |
| 2026-05-07 04:31 | 31.32971 | 121.32899 | 2084 ft | 186 kts | 175° |
| 2026-05-07 04:31 | 31.31740 | 121.33002 | 1971 ft | 171 kts | 180° |
| 2026-05-07 04:32 | 31.30590 | 121.33040 | 1772 ft | 160 kts | 180° |
| 2026-05-07 04:32 | 31.29512 | 121.33093 | 1601 ft | 151 kts | 176° |
| 2026-05-07 04:32 | 31.28479 | 121.33164 | 1361 ft | 145 kts | 181° |
| 2026-05-07 04:32 | 31.27491 | 121.33193 | 1145 ft | 142 kts | 179° |
| 2026-05-07 04:33 | 31.26502 | 121.33267 | 1004 ft | 141 kts | 179° |
| 2026-05-07 04:33 | 31.25513 | 121.33322 | 865 ft | 144 kts | 181° |
| 2026-05-07 04:33 | 31.24511 | 121.33356 | 679 ft | 144 kts | 180° |
| 2026-05-07 04:33 | 31.23510 | 121.33417 | 499 ft | 145 kts | 177° |
| 2026-05-07 04:34 | 31.22507 | 121.33478 | 305 ft | 144 kts | 178° |
| 2026-05-07 04:34 | 31.21499 | 121.33537 | 109 ft | 145 kts | 177° |
| 2026-05-07 04:34 | 31.20505 | 121.33591 | 29 ft | 136 kts | 177° |
| 2026-05-07 04:34 | 31.19775 | 121.33631 | 28 ft | 73 kts | 178° |
| 2026-05-07 04:35 | 31.19435 | 121.33651 | 26 ft | 39 kts | 173° |
| 2026-05-07 04:35 | 31.19224 | 121.33741 | 30 ft | 16 kts | 148° |
| 2026-05-07 04:35 | 31.19124 | 121.33816 | 30 ft | 9 kts | 146° |
| 2026-05-07 04:35 | 31.19069 | 121.33861 | 30 ft | 11 kts | 139° |
| 2026-05-07 04:36 | 31.19054 | 121.33942 | 28 ft | 12 kts | 84° |
| 2026-05-07 04:36 | 31.19105 | 121.34003 | 29 ft | 12 kts | 2° |
| 2026-05-07 04:36 | 31.19203 | 121.34000 | 28 ft | 16 kts | 358° |
| 2026-05-07 04:36 | 31.19322 | 121.33993 | 28 ft | 15 kts | 357° |
| 2026-05-07 04:37 | 31.19398 | 121.33988 | 28 ft | 9 kts | 356° |
| 2026-05-07 04:37 | 31.19475 | 121.33984 | 28 ft | 13 kts | 358° |
| 2026-05-07 04:37 | 31.19517 | 121.34020 | 29 ft | 6 kts | 73° |
| 2026-05-07 04:37 | 31.19522 | 121.34054 | 30 ft | 2 kts | 81° |
| 2026-05-07 04:38 | 31.19523 | 121.34063 | 30 ft | 0 kts | 82° |